Time;durP1;ratioP1;P1;durP2;ratioP2;P2;SDS_P1;SDS_P2;PMS_P1;PMS_P2;Temp;Humidity;BMP_temperature;BMP_pressure;BME280_temperature;BME280_humidity;BME280_pressure;Samples;Min_cycle;Max_cycle;Signal;HPM_P1;HPM_P2
2021/07/26 08:19:21;;;;;;;21.40;10.48;;;20.70;99.90;;;;;;12051668;27;20470;-61
2021/07/26 08:25:11;;;;;;;21.27;11.18;;;20.90;99.90;;;;;;12004892;28;20048;-61
2021/07/26 08:31:00;;;;;;;21.20;11.27;;;21.80;99.90;;;;;;12031698;28;20144;-60
2021/07/26 08:36:48;;;;;;;15.23;9.52;;;22.30;99.90;;;;;;12007880;28;20076;-61
2021/07/26 08:42:35;;;;;;;15.40;8.45;;;22.60;99.90;;;;;;12026944;28;20041;-61
2021/07/26 08:48:25;;;;;;;13.45;8.07;;;22.80;99.90;;;;;;12030272;28;20059;-61
2021/07/26 08:54:15;;;;;;;14.05;8.52;;;22.60;99.90;;;;;;12040851;28;20049;-60
2021/07/26 09:00:02;;;;;;;11.50;8.20;;;22.60;99.90;;;;;;12027071;28;20044;-60
2021/07/26 09:05:49;;;;;;;15.05;8.60;;;22.80;99.90;;;;;;12031677;28;20791;-61
2021/07/26 09:11:45;;;;;;;13.35;8.18;;;22.80;99.90;;;;;;12001676;28;20060;-61
2021/07/26 09:17:38;;;;;;;15.13;9.40;;;22.50;99.90;;;;;;12004080;27;20033;-61
2021/07/26 09:23:25;;;;;;;;;;;22.00;99.90;;;;;;12009425;28;20059;-61
2021/07/26 09:29:27;;;;;;;21.33;11.57;;;21.70;99.90;;;;;;12028702;28;19928;-61
2021/07/26 09:35:14;;;;;;;21.85;12.35;;;21.50;99.90;;;;;;12019945;28;20048;-61
2021/07/26 09:41:02;;;;;;;26.52;14.57;;;21.90;99.90;;;;;;12021770;28;20071;-61
2021/07/26 09:46:51;;;;;;;25.15;14.65;;;22.20;99.90;;;;;;11998018;28;20054;-61
2021/07/26 09:52:38;;;;;;;20.05;12.68;;;22.40;99.90;;;;;;12017416;28;20041;-61
2021/07/26 09:58:38;;;;;;;20.80;12.80;;;22.40;99.90;;;;;;12019969;28;20036;-61
2021/07/26 10:04:30;;;;;;;22.75;12.80;;;22.50;99.90;;;;;;12019157;28;20102;-59
2021/07/26 10:10:17;;;;;;;18.90;11.40;;;22.50;99.90;;;;;;12000651;28;20056;-60
2021/07/26 10:16:05;;;;;;;19.83;12.57;;;22.60;99.90;;;;;;12006384;28;20398;-58
2021/07/26 10:21:56;;;;;;;18.85;11.63;;;22.70;99.90;;;;;;11991290;28;20525;-60
2021/07/26 10:27:43;;;;;;;22.08;12.68;;;23.10;99.90;;;;;;12002090;28;20049;-60
2021/07/26 10:33:30;;;;;;;32.17;16.05;;;23.10;99.90;;;;;;12017703;28;20037;-60
2021/07/26 10:39:19;;;;;;;28.23;17.83;;;22.80;99.90;;;;;;12006438;28;20509;-60
2021/07/26 10:45:07;;;;;;;26.10;15.65;;;22.10;99.90;;;;;;12001001;28;20147;-61
2021/07/26 10:50:56;;;;;;;23.92;14.95;;;21.90;99.90;;;;;;11992770;28;20051;-61
2021/07/26 10:57:07;;;;;;;25.35;15.35;;;21.80;99.90;;;;;;12017207;27;20045;-60
2021/07/26 11:02:54;;;;;;;19.05;13.02;;;22.20;99.90;;;;;;12015615;28;20079;-61
2021/07/26 11:08:41;;;;;;;26.52;14.32;;;22.30;99.90;;;;;;12008190;28;20040;-61
2021/07/26 11:21:21;;;;;;;20.50;12.32;;;22.70;99.90;;;;;;11994551;28;20505;-61
2021/07/26 11:27:08;;;;;;;20.38;12.65;;;22.30;99.90;;;;;;11989769;28;20037;-62
2021/07/26 11:32:55;;;;;;;16.85;12.63;;;22.30;99.90;;;;;;11990472;28;20517;-63
2021/07/26 11:39:04;;;;;;;15.20;10.32;;;22.50;99.90;;;;;;12013970;28;20150;-64
2021/07/26 11:44:53;;;;;;;15.48;10.30;;;22.60;99.90;;;;;;12014668;28;20051;-61
2021/07/26 11:50:40;;;;;;;14.18;8.70;;;23.00;99.90;;;;;;12014521;28;20045;-61
2021/07/26 11:56:29;;;;;;;10.43;8.52;;;23.40;99.90;;;;;;11989222;28;20078;-61
2021/07/26 12:02:25;;;;;;;10.32;8.43;;;23.50;99.90;;;;;;12014521;28;20056;-61
2021/07/26 12:08:13;;;;;;;13.20;8.02;;;23.70;99.90;;;;;;12014156;28;20048;-60
2021/07/26 12:14:22;;;;;;;15.50;9.15;;;23.70;99.90;;;;;;12015957;28;20041;-63
2021/07/26 12:20:11;;;;;;;10.95;8.15;;;23.90;99.90;;;;;;11993984;28;20060;-62
2021/07/26 12:26:00;;;;;;;11.35;8.38;;;24.20;99.90;;;;;;11998066;28;20408;-61
2021/07/26 12:32:03;;;;;;;10.73;8.75;;;24.50;99.90;;;;;;12013470;28;20115;-62
2021/07/26 12:38:03;;;;;;;;;;;24.20;99.90;;;;;;12013876;28;20052;-62
2021/07/26 12:43:49;;;;;;;12.80;9.57;;;24.10;99.90;;;;;;11975755;28;19927;-63
2021/07/26 12:49:38;;;;;;;14.98;9.38;;;24.60;99.90;;;;;;11988551;28;20056;-62
2021/07/26 12:55:24;;;;;;;14.57;9.70;;;24.70;99.90;;;;;;11987674;28;20425;-62
2021/07/26 13:01:11;;;;;;;16.20;10.55;;;24.60;99.90;;;;;;12013849;28;20041;-62
2021/07/26 13:06:59;;;;;;;13.30;9.88;;;24.70;99.90;;;;;;12012276;28;20429;-62
2021/07/26 13:12:46;;;;;;;12.23;9.43;;;24.80;99.90;;;;;;11987141;28;20041;-60
2021/07/26 13:18:33;;;;;;;12.32;9.93;;;24.90;99.90;;;;;;11995596;28;20053;-61
2021/07/26 13:24:21;;;;;;;12.80;9.48;;;24.70;99.90;;;;;;11964815;28;20655;-60
2021/07/26 13:30:09;;;;;;;14.32;9.88;;;24.80;99.90;;;;;;11988049;28;20187;-61
2021/07/26 13:35:56;;;;;;;10.68;9.10;;;24.80;99.90;;;;;;12015095;28;20417;-61
2021/07/26 13:41:44;;;;;;;12.35;9.20;;;24.80;99.90;;;;;;11964155;28;20046;-62
2021/07/26 13:47:32;;;;;;;11.18;8.68;;;24.70;99.90;;;;;;11985381;28;20499;-62
2021/07/26 13:53:18;;;;;;;11.25;8.88;;;25.00;99.90;;;;;;12002466;28;22004;-62
2021/07/26 13:59:06;;;;;;;11.25;8.73;;;25.80;99.90;;;;;;12000762;28;20066;-61
2021/07/26 14:04:53;;;;;;;10.95;7.80;;;26.10;99.30;;;;;;12004985;28;20056;-62
2021/07/26 14:10:41;;;;;;;9.43;8.18;;;26.10;98.80;;;;;;11994707;28;20057;-63
2021/07/26 14:16:30;;;;;;;12.48;7.72;;;26.70;98.60;;;;;;12003369;28;20049;-61
2021/07/26 14:22:17;;;;;;;9.52;7.70;;;27.20;97.40;;;;;;12001773;28;20106;-62
2021/07/26 14:28:05;;;;;;;8.75;7.80;;;27.40;95.00;;;;;;11997036;28;20080;-62
2021/07/26 14:33:53;;;;;;;10.07;7.53;;;27.50;95.90;;;;;;11977828;28;20625;-61
2021/07/26 14:39:41;;;;;;;10.13;7.40;;;27.80;93.60;;;;;;12002375;28;20086;-62
2021/07/26 14:45:27;;;;;;;11.07;7.65;;;27.50;93.40;;;;;;11993232;28;20076;-60
2021/07/26 14:51:16;;;;;;;12.63;8.25;;;27.30;93.50;;;;;;11994308;28;20052;-60
2021/07/26 14:57:04;;;;;;;10.88;7.85;;;27.00;93.40;;;;;;11983467;28;20088;-61
2021/07/26 15:02:50;;;;;;;11.57;7.28;;;26.80;93.80;;;;;;11992245;28;20403;-60
2021/07/26 15:08:39;;;;;;;10.82;8.00;;;27.20;93.60;;;;;;11997100;28;21015;-61
2021/07/26 15:14:26;;;;;;;21.45;10.52;;;26.80;93.40;;;;;;11975889;28;20521;-61
2021/07/26 15:20:13;;;;;;;26.55;14.82;;;25.90;99.10;;;;;;11980429;28;20488;-63
2021/07/26 15:32:07;;;;;;;31.50;16.60;;;24.10;99.90;;;;;;12013750;28;20041;-62
2021/07/26 15:37:54;;;;;;;29.00;17.67;;;23.90;99.90;;;;;;12014915;28;20045;-62
2021/07/26 15:43:43;;;;;;;28.77;16.92;;;23.70;99.90;;;;;;12014939;28;20079;-63
2021/07/26 15:49:30;;;;;;;22.02;15.32;;;23.70;99.90;;;;;;12013912;28;20060;-64
2021/07/26 15:55:17;;;;;;;84.43;27.27;;;23.20;99.90;;;;;;12014700;28;20041;-64
2021/07/26 16:01:07;;;;;;;28.10;18.55;;;23.00;99.90;;;;;;12013080;28;20087;-64
2021/07/26 16:06:54;;;;;;;26.95;17.48;;;23.10;99.90;;;;;;12006134;28;20060;-65
2021/07/26 16:12:41;;;;;;;21.20;14.32;;;23.00;99.90;;;;;;11964260;28;20067;-66
2021/07/26 16:18:30;;;;;;;22.40;13.15;;;23.50;99.90;;;;;;11997819;28;20084;-62
2021/07/26 16:24:16;;;;;;;17.13;12.35;;;25.40;99.90;;;;;;11990064;28;20049;-63
2021/07/26 16:30:17;;;;;;;13.90;11.10;;;28.30;99.90;;;;;;11999543;28;20053;-62
2021/07/26 16:36:05;;;;;;;14.43;11.75;;;30.40;99.90;;;;;;11937958;28;20076;-64
2021/07/26 16:41:53;;;;;;;14.05;11.13;;;30.80;99.90;;;;;;11943131;28;20509;-64
2021/07/26 16:47:40;;;;;;;13.60;11.40;;;29.40;99.90;;;;;;12010119;28;20064;-63
2021/07/26 16:53:29;;;;;;;12.77;9.98;;;28.10;99.90;;;;;;11999366;28;20064;-64
2021/07/26 16:59:15;;;;;;;15.30;10.80;;;29.10;99.90;;;;;;12004253;28;20052;-63
2021/07/26 17:05:02;;;;;;;16.45;11.88;;;29.30;99.90;;;;;;12015133;28;20052;-62
2021/07/26 17:10:50;;;;;;;16.50;12.13;;;28.40;99.90;;;;;;11996924;28;20061;-63
2021/07/26 17:16:37;;;;;;;14.48;12.57;;;27.70;99.90;;;;;;11997055;28;20448;-62
2021/07/26 17:22:24;;;;;;;18.02;14.15;;;27.00;99.90;;;;;;11997412;28;20056;-63
2021/07/26 17:28:12;;;;;;;27.45;18.48;;;26.30;99.90;;;;;;12015981;28;20045;-64
2021/07/26 17:34:00;;;;;;;16.30;13.32;;;26.00;99.90;;;;;;12021048;28;20130;-64
2021/07/26 17:39:46;;;;;;;18.80;14.15;;;26.00;99.90;;;;;;12019414;28;20041;-63
2021/07/26 17:45:35;;;;;;;23.63;15.23;;;26.40;99.90;;;;;;12020008;28;20497;-63
2021/07/26 17:51:22;;;;;;;21.02;14.10;;;25.90;99.90;;;;;;12019242;28;20498;-63
2021/07/26 17:57:09;;;;;;;17.67;12.30;;;25.50;99.90;;;;;;12019265;28;20041;-64
2021/07/26 18:02:58;;;;;;;17.25;12.02;;;25.70;99.90;;;;;;12020019;28;20084;-64
2021/07/26 18:08:44;;;;;;;12.68;10.68;;;27.30;99.90;;;;;;11985959;28;20530;-64
2021/07/26 18:14:32;;;;;;;16.92;10.43;;;29.50;99.90;;;;;;11985329;28;20063;-64
2021/07/26 18:20:22;;;;;;;18.67;10.77;;;30.70;99.90;;;;;;12017650;28;20453;-64
2021/07/26 18:26:09;;;;;;;15.18;10.40;;;31.30;99.90;;;;;;12017874;28;20049;-64
2021/07/26 18:31:56;;;;;;;14.02;10.88;;;31.20;99.90;;;;;;12019096;28;20049;-63
2021/07/26 18:37:45;;;;;;;14.40;10.35;;;30.90;97.40;;;;;;11992481;28;20048;-65
2021/07/26 18:43:32;;;;;;;13.60;10.75;;;30.60;98.10;;;;;;12018783;28;20572;-62
2021/07/26 18:49:18;;;;;;;13.23;10.60;;;30.20;97.70;;;;;;12016348;28;20041;-63
2021/07/26 18:55:09;;;;;;;19.25;12.77;;;29.40;99.30;;;;;;12016249;28;20071;-64
2021/07/26 19:00:55;;;;;;;19.92;12.23;;;28.50;99.30;;;;;;12013630;28;20053;-62
2021/07/26 19:06:43;;;;;;;16.05;13.05;;;27.10;99.90;;;;;;12005166;28;20045;-62
2021/07/26 19:12:31;;;;;;;18.23;12.85;;;26.00;99.90;;;;;;11985455;28;20056;-62
2021/07/26 19:18:18;;;;;;;18.55;13.40;;;25.40;99.90;;;;;;11994872;28;20064;-60
2021/07/26 19:24:06;;;;;;;20.02;12.85;;;25.00;99.90;;;;;;11923627;28;20124;-61
2021/07/26 19:29:55;;;;;;;18.58;13.63;;;24.70;99.90;;;;;;11981302;28;20121;-64
2021/07/26 19:35:42;;;;;;;19.70;14.30;;;24.50;99.90;;;;;;11977486;28;20041;-62
2021/07/26 19:41:32;;;;;;;20.30;13.73;;;24.30;99.90;;;;;;11990278;28;20049;-62
2021/07/26 19:47:20;;;;;;;22.88;14.80;;;24.20;99.90;;;;;;11998796;28;20055;-64
2021/07/26 19:53:08;;;;;;;21.10;15.40;;;24.10;99.90;;;;;;11999426;28;20722;-63
2021/07/26 19:58:54;;;;;;;19.88;14.07;;;23.90;99.90;;;;;;11989627;28;20055;-62
2021/07/26 20:04:43;;;;;;;18.63;13.90;;;23.90;99.90;;;;;;11988138;28;20060;-70
2021/07/26 20:10:30;;;;;;;18.88;13.95;;;23.80;99.90;;;;;;11987860;28;20048;-68
2021/07/26 20:16:25;;;;;;;24.42;14.60;;;23.80;99.90;;;;;;12011624;28;20053;-68
2021/07/26 20:22:13;;;;;;;25.20;14.52;;;23.80;99.90;;;;;;11994406;28;20084;-68
2021/07/26 20:28:00;;;;;;;20.13;13.88;;;23.70;99.90;;;;;;11987014;28;20048;-67
2021/07/26 20:33:47;;;;;;;20.83;13.98;;;23.60;99.90;;;;;;12005137;28;20057;-66
2021/07/26 20:39:35;;;;;;;19.63;14.93;;;23.60;99.90;;;;;;12013560;28;20053;-65
2021/07/26 20:45:22;;;;;;;23.52;14.20;;;23.60;99.90;;;;;;11995404;28;20041;-66
2021/07/26 20:51:09;;;;;;;22.92;14.55;;;23.40;99.90;;;;;;12009872;28;20055;-65
2021/07/26 20:56:57;;;;;;;20.30;13.75;;;23.30;99.90;;;;;;12013325;28;20056;-66
2021/07/26 21:02:44;;;;;;;19.85;12.73;;;23.30;99.90;;;;;;11988937;28;20052;-65
2021/07/26 21:08:31;;;;;;;15.60;12.57;;;23.30;99.90;;;;;;11999279;28;20952;-65
2021/07/26 21:14:53;;;;;;;22.08;13.68;;;23.20;99.90;;;;;;11996203;28;20045;-68
2021/07/26 21:20:42;;;;;;;18.45;13.82;;;23.20;99.90;;;;;;12011889;28;20067;-68
2021/07/26 21:26:30;;;;;;;24.75;13.98;;;23.20;99.90;;;;;;12007529;28;20521;-67
2021/07/26 21:32:19;;;;;;;23.98;13.77;;;23.10;99.90;;;;;;12012090;28;20186;-67
2021/07/26 21:38:06;;;;;;;19.30;13.18;;;23.10;99.90;;;;;;11987170;28;20429;-67
2021/07/26 21:43:53;;;;;;;19.63;13.18;;;23.10;99.90;;;;;;12009846;22;20045;-78
2021/07/26 21:49:41;;;;;;;17.05;12.98;;;23.00;99.90;;;;;;11998355;28;20053;-78
2021/07/26 21:55:28;;;;;;;22.80;14.25;;;22.90;99.90;;;;;;12004396;28;20057;-78
2021/07/26 22:01:16;;;;;;;22.45;13.98;;;22.90;99.90;;;;;;12000403;28;20057;-77
2021/07/26 22:07:05;;;;;;;21.63;13.23;;;22.90;99.90;;;;;;12004755;28;20538;-79
2021/07/26 22:12:52;;;;;;;22.27;13.85;;;22.80;99.90;;;;;;11982266;28;20173;-79
2021/07/26 22:18:41;;;;;;;22.45;12.70;;;22.70;99.90;;;;;;12000762;28;20118;-78
2021/07/26 22:24:29;;;;;;;19.40;12.50;;;22.70;99.90;;;;;;12000073;28;20650;-78
2021/07/26 22:30:16;;;;;;;17.50;12.00;;;22.70;99.90;;;;;;12003420;28;20059;-77
2021/07/26 22:36:04;;;;;;;20.55;12.35;;;22.70;99.90;;;;;;11995244;28;20497;-77
2021/07/26 22:41:52;;;;;;;18.73;11.57;;;22.70;99.90;;;;;;11997857;28;20061;-78
2021/07/26 22:47:39;;;;;;;20.13;12.05;;;22.60;99.90;;;;;;12003112;28;20063;-78
2021/07/26 22:53:26;;;;;;;18.08;12.55;;;22.60;99.90;;;;;;11985804;28;20052;-78
2021/07/26 22:59:15;;;;;;;23.85;12.02;;;22.50;99.90;;;;;;12001283;28;20620;-78
2021/07/26 23:05:02;;;;;;;15.82;11.68;;;22.50;99.90;;;;;;12001279;28;20049;-78
2021/07/26 23:10:48;;;;;;;19.30;11.88;;;22.50;99.90;;;;;;12011351;28;20049;-79
2021/07/26 23:16:39;;;;;;;19.70;11.18;;;22.30;99.90;;;;;;12009138;28;20048;-78
2021/07/26 23:22:26;;;;;;;19.10;10.55;;;22.30;99.90;;;;;;12008287;28;20143;-78
2021/07/26 23:28:13;;;;;;;23.25;9.85;;;22.40;99.90;;;;;;11999185;28;20078;-77
2021/07/26 23:34:01;;;;;;;21.23;11.63;;;22.40;99.90;;;;;;12004538;28;20060;-77
2021/07/26 23:39:48;;;;;;;18.58;10.75;;;22.40;99.90;;;;;;12001398;28;20048;-77
2021/07/26 23:45:35;;;;;;;16.90;10.68;;;22.40;99.90;;;;;;12001201;28;20057;-78
2021/07/26 23:51:23;;;;;;;18.35;10.75;;;22.40;99.90;;;;;;12000261;28;20488;-78
2021/07/26 23:57:10;;;;;;;21.23;10.27;;;22.20;99.90;;;;;;11997149;28;20052;-78
